Peney — HOGK — position and weather

sailwx.info

Track history (hours):
 
Tides and Currents Weather Stations Pressure Air Temp Water Temp Dewpoint Dewpoint Depression Visibility Wind Speed Wind Dir Waves Ship Positions

Peney

Last reported at 2017-Feb-10 21:32 UTC. Time now 2017-Feb-24 17:29 UTC.
Position N 36°18' E 014°54'.
Warning: this ship's position is 13 days out of date.

Length 225 m; draft 13.8 m.

Type: Other ship. MMSI: 374921000.

Date/timePositionNaut miles runAvg speedWind from/ knotsBaromVisibWave heightAir tempDewpointWater temp
2017-Feb-10 21:32N 36°18' E 014°54'1312.9
2017-Feb-10 20:33N 36°18' E 014°39'1312.7
2017-Feb-10 19:33N 36°20' E 014°23'1313.2
2017-Feb-10 18:33N 36°24' E 014°07'  
2017-Feb-07 13:19N 36°00' W 005°12'1215.5
2017-Feb-07 12:33N 35°58' W 005°26'1414.4
2017-Feb-07 11:33N 35°54' W 005°44'13213.1
2017-Feb-07 01:28N 35°54' W 008°26'2512.7
2017-Feb-06 23:29N 35°54' W 008°57'1213.0
2017-Feb-06 22:33N 35°54' W 009°12'1512.9
2017-Feb-06 21:26N 35°54' W 009°30'1112.8
2017-Feb-06 20:33N 35°54' W 009°44'1312.8
2017-Feb-06 19:33N 35°54' W 009°60'1312.9
2017-Feb-06 18:33N 35°54' W 010°16'2712.9
2017-Feb-06 16:29N 35°54' W 010°49'1212.8
2017-Feb-06 15:32N 35°54' W 011°04'1212.8
2017-Feb-06 14:33N 35°54' W 011°19'1312.7
2017-Feb-06 13:33N 35°54' W 011°35'12712.7
2017-Feb-06 03:33N 35°54' W 014°12'30212.4
2017-Feb-05 03:10N 35°54' W 020°25'812.9
2017-Feb-05 02:34N 35°54' W 020°34'1312.6
2017-Feb-05 01:33N 35°54' W 020°50'1312.7
2017-Feb-05 00:33N 35°54' W 021°06'7512.4
2017-Feb-04 18:31N 35°54' W 022°38'1212.5
2017-Feb-04 17:33N 35°54' W 022°53'2612.6
2017-Feb-04 15:27N 35°54' W 023°26'2412.6
2017-Feb-04 13:31N 35°54' W 023°56'1212.6
2017-Feb-04 12:33N 35°53' W 024°11'1212.4
2017-Feb-04 11:33N 35°54' W 024°26'1212.4
2017-Feb-04 10:33N 35°53' W 024°41'1312.7
2017-Feb-04 09:33N 35°54' W 024°57'1312.8
2017-Feb-04 08:33N 35°54' W 025°13'1312.7
2017-Feb-04 07:33N 35°54' W 025°28'1312.8
2017-Feb-04 06:33N 35°54' W 025°44'1812.8
2017-Feb-04 05:11N 35°54' W 026°06'8412.6
2017-Feb-03 22:30N 35°54' W 027°50'4112.7
2017-Feb-03 19:17N 35°54' W 028°40'  
Track history (hours):
 
Tides and Currents Weather Stations Pressure Air Temp Water Temp Dewpoint Dewpoint Depression Visibility Wind Speed Wind Dir Waves Ship Positions

Peney

Last reported at 2017-Feb-10 21:32 UTC. Time now 2017-Feb-24 17:29 UTC.
Position N 36°18' E 014°54'.
Warning: this ship's position is 13 days out of date.

Length 225 m; draft 13.8 m.

Type: Other ship. MMSI: 374921000.

Date/timePositionNaut miles runAvg speedWind from/ knotsBaromVisibWave heightAir tempDewpointWater temp
2017-Feb-10 21:32N 36°18' E 014°54'1312.9
2017-Feb-10 20:33N 36°18' E 014°39'1312.7
2017-Feb-10 19:33N 36°20' E 014°23'1313.2
2017-Feb-10 18:33N 36°24' E 014°07'  
2017-Feb-07 13:19N 36°00' W 005°12'1215.5
2017-Feb-07 12:33N 35°58' W 005°26'1414.4
2017-Feb-07 11:33N 35°54' W 005°44'13213.1
2017-Feb-07 01:28N 35°54' W 008°26'2512.7
2017-Feb-06 23:29N 35°54' W 008°57'1213.0
2017-Feb-06 22:33N 35°54' W 009°12'1512.9
2017-Feb-06 21:26N 35°54' W 009°30'1112.8
2017-Feb-06 20:33N 35°54' W 009°44'1312.8
2017-Feb-06 19:33N 35°54' W 009°60'1312.9
2017-Feb-06 18:33N 35°54' W 010°16'2712.9
2017-Feb-06 16:29N 35°54' W 010°49'1212.8
2017-Feb-06 15:32N 35°54' W 011°04'1212.8
2017-Feb-06 14:33N 35°54' W 011°19'1312.7
2017-Feb-06 13:33N 35°54' W 011°35'12712.7
2017-Feb-06 03:33N 35°54' W 014°12'30212.4
2017-Feb-05 03:10N 35°54' W 020°25'812.9
2017-Feb-05 02:34N 35°54' W 020°34'1312.6
2017-Feb-05 01:33N 35°54' W 020°50'1312.7
2017-Feb-05 00:33N 35°54' W 021°06'7512.4
2017-Feb-04 18:31N 35°54' W 022°38'1212.5
2017-Feb-04 17:33N 35°54' W 022°53'2612.6
2017-Feb-04 15:27N 35°54' W 023°26'2412.6
2017-Feb-04 13:31N 35°54' W 023°56'1212.6
2017-Feb-04 12:33N 35°53' W 024°11'1212.4
2017-Feb-04 11:33N 35°54' W 024°26'1212.4
2017-Feb-04 10:33N 35°53' W 024°41'1312.7
2017-Feb-04 09:33N 35°54' W 024°57'1312.8
2017-Feb-04 08:33N 35°54' W 025°13'1312.7
2017-Feb-04 07:33N 35°54' W 025°28'1312.8
2017-Feb-04 06:33N 35°54' W 025°44'1812.8
2017-Feb-04 05:11N 35°54' W 026°06'8412.6
2017-Feb-03 22:30N 35°54' W 027°50'4112.7
2017-Feb-03 19:17N 35°54' W 028°40'  

Dump ship's entire track history